Time;durP1;ratioP1;P1;durP2;ratioP2;P2;SDS_P1;SDS_P2;PMS_P1;PMS_P2;Temp;Humidity;BMP_temperature;BMP_pressure;BME280_temperature;BME280_humidity;BME280_pressure;Samples;Min_cycle;Max_cycle;Signal;HPM_P1;HPM_P2
2022/03/18 00:02:13;;;;;;;;;24.50;22.25;;;;;;;;5068197;27;51217;-63
2022/03/18 00:04:38;;;;;;;;;19.25;18.25;;;;;;;;5067824;28;51433;-62
2022/03/18 00:07:03;;;;;;;;;22.75;21.00;;;;;;;;5066657;28;51121;-62
2022/03/18 00:09:29;;;;;;;;;20.75;19.50;;;;;;;;5070881;27;51204;-62
2022/03/18 00:11:54;;;;;;;;;19.00;18.75;;;;;;;;5068216;27;51972;-63
2022/03/18 00:14:20;;;;;;;;;21.50;20.75;;;;;;;;5064084;28;51256;-62
2022/03/18 00:16:45;;;;;;;;;21.75;19.50;;;;;;;;5066279;28;51181;-62
2022/03/18 00:19:10;;;;;;;;;24.00;21.00;;;;;;;;5070801;27;51970;-62
2022/03/18 00:21:36;;;;;;;;;23.50;23.50;;;;;;;;5069364;27;51107;-63
2022/03/18 00:24:03;;;;;;;;;26.25;24.75;;;;;;;;5071485;28;51053;-63
2022/03/18 00:26:29;;;;;;;;;25.50;24.25;;;;;;;;5069402;27;51224;-63
2022/03/18 00:28:54;;;;;;;;;24.50;23.75;;;;;;;;5066345;27;51177;-63
2022/03/18 00:31:19;;;;;;;;;25.75;24.00;;;;;;;;5071115;27;51147;-61
2022/03/18 00:33:44;;;;;;;;;30.25;28.50;;;;;;;;5066597;27;50998;-63
2022/03/18 00:36:10;;;;;;;;;27.25;26.50;;;;;;;;5067035;27;50930;-63
2022/03/18 00:38:35;;;;;;;;;27.25;24.75;;;;;;;;5067097;27;51965;-62
2022/03/18 00:41:01;;;;;;;;;29.75;26.75;;;;;;;;5072562;28;51186;-61
2022/03/18 00:43:26;;;;;;;;;27.00;24.00;;;;;;;;5062643;28;51018;-62
2022/03/18 00:45:51;;;;;;;;;28.25;26.50;;;;;;;;5068598;28;51048;-62
2022/03/18 00:53:44;;;;;;;;;25.50;23.00;;;;;;;;5067206;28;51105;-62
2022/03/18 00:56:09;;;;;;;;;29.50;25.50;;;;;;;;5070735;27;51376;-63
2022/03/18 00:58:34;;;;;;;;;20.50;19.25;;;;;;;;5067610;27;51276;-62
2022/03/18 01:00:59;;;;;;;;;27.25;21.50;;;;;;;;5073006;27;51014;-62
2022/03/18 01:03:25;;;;;;;;;28.50;24.25;;;;;;;;5067787;27;51057;-61
2022/03/18 01:05:50;;;;;;;;;26.25;26.25;;;;;;;;5072901;28;51007;-63
2022/03/18 01:08:15;;;;;;;;;25.75;24.75;;;;;;;;5060838;27;51249;-62
2022/03/18 01:10:40;;;;;;;;;28.00;23.50;;;;;;;;5071813;27;53337;-63
2022/03/18 01:13:06;;;;;;;;;28.00;24.25;;;;;;;;5069963;27;51032;-63
2022/03/18 01:15:31;;;;;;;;;26.25;24.75;;;;;;;;5070826;28;51336;-62
2022/03/18 01:17:56;;;;;;;;;27.75;26.75;;;;;;;;5066547;28;51283;-62
2022/03/18 01:20:22;;;;;;;;;27.75;25.00;;;;;;;;5073285;27;51003;-62
2022/03/18 01:22:47;;;;;;;;;32.50;28.00;;;;;;;;5064962;27;50992;-63
2022/03/18 01:25:12;;;;;;;;;28.75;26.75;;;;;;;;5068287;28;50902;-63
2022/03/18 01:27:37;;;;;;;;;29.50;24.75;;;;;;;;5065240;28;51074;-62
2022/03/18 01:30:03;;;;;;;;;28.75;26.75;;;;;;;;5065607;27;51467;-62
2022/03/18 01:32:28;;;;;;;;;33.25;28.75;;;;;;;;5067041;27;51060;-62
2022/03/18 01:34:54;;;;;;;;;23.75;21.75;;;;;;;;5071022;27;50906;-62
2022/03/18 01:37:20;;;;;;;;;28.00;27.50;;;;;;;;5068902;28;52907;-62
2022/03/18 01:39:45;;;;;;;;;29.50;27.50;;;;;;;;5069956;27;51121;-62
2022/03/18 01:42:11;;;;;;;;;32.75;29.50;;;;;;;;5064100;27;52013;-63
2022/03/18 01:44:41;;;;;;;;;34.25;28.50;;;;;;;;5072807;28;51276;-63
2022/03/18 01:47:06;;;;;;;;;28.00;27.25;;;;;;;;5053465;27;51144;-62
2022/03/18 01:49:31;;;;;;;;;30.25;28.25;;;;;;;;5063928;27;50976;-62
2022/03/18 01:51:57;;;;;;;;;31.75;28.25;;;;;;;;5068299;27;51341;-61
2022/03/18 01:57:06;;;;;;;;;27.50;24.00;;;;;;;;5058511;27;51597;-61
2022/03/18 01:59:32;;;;;;;;;28.25;27.00;;;;;;;;5065961;28;50991;-62
2022/03/18 02:01:57;;;;;;;;;29.75;27.75;;;;;;;;5063538;27;50985;-62
2022/03/18 02:04:22;;;;;;;;;33.50;32.00;;;;;;;;5060925;27;50861;-61
2022/03/18 02:06:47;;;;;;;;;32.25;30.50;;;;;;;;5068628;27;52488;-62
2022/03/18 02:09:13;;;;;;;;;32.50;25.25;;;;;;;;5062321;27;51159;-61
2022/03/18 02:11:38;;;;;;;;;16.50;13.50;;;;;;;;5052315;28;51082;-62
2022/03/18 02:14:03;;;;;;;;;23.25;22.00;;;;;;;;5063297;28;50973;-62
2022/03/18 02:16:29;;;;;;;;;27.75;26.50;;;;;;;;5065606;27;51831;-62
2022/03/18 02:18:54;;;;;;;;;31.00;28.75;;;;;;;;5066843;27;51063;-62
2022/03/18 02:21:20;;;;;;;;;30.00;29.75;;;;;;;;5061922;28;51103;-62
2022/03/18 02:23:45;;;;;;;;;32.00;31.50;;;;;;;;5065381;27;51208;-63
2022/03/18 02:26:14;;;;;;;;;32.75;28.25;;;;;;;;5060783;27;52164;-62
2022/03/18 02:28:39;;;;;;;;;34.00;30.75;;;;;;;;5055328;28;51132;-62
2022/03/18 02:31:05;;;;;;;;;32.50;28.75;;;;;;;;5058079;27;51216;-61
2022/03/18 02:33:30;;;;;;;;;27.00;26.00;;;;;;;;5068402;27;50932;-62
2022/03/18 02:35:55;;;;;;;;;29.25;27.75;;;;;;;;5070810;27;53508;-62
2022/03/18 02:38:20;;;;;;;;;32.25;28.75;;;;;;;;5061992;27;51214;-63
2022/03/18 02:40:46;;;;;;;;;32.50;29.50;;;;;;;;5068347;27;51111;-62
2022/03/18 02:43:11;;;;;;;;;27.75;26.25;;;;;;;;5069212;27;51125;-62
2022/03/18 02:45:36;;;;;;;;;33.00;30.75;;;;;;;;5069288;28;51157;-62
2022/03/18 02:48:02;;;;;;;;;28.00;21.00;;;;;;;;5068895;27;51017;-62
2022/03/18 02:50:27;;;;;;;;;38.00;32.25;;;;;;;;5067233;28;51002;-63
2022/03/18 02:52:52;;;;;;;;;34.50;29.25;;;;;;;;5067515;28;51314;-62
2022/03/18 02:55:18;;;;;;;;;31.50;29.75;;;;;;;;5069257;28;50926;-62
2022/03/18 02:57:44;;;;;;;;;36.50;34.50;;;;;;;;5072891;27;51152;-62
2022/03/18 03:00:09;;;;;;;;;30.00;27.25;;;;;;;;5073887;27;50910;-62
2022/03/18 03:02:35;;;;;;;;;36.50;33.75;;;;;;;;5069835;28;51475;-62
2022/03/18 03:07:59;;;;;;;;;37.25;36.25;;;;;;;;5070549;28;51057;-63
2022/03/18 03:10:24;;;;;;;;;37.50;31.75;;;;;;;;5059520;28;51173;-62
2022/03/18 03:12:50;;;;;;;;;33.75;31.50;;;;;;;;5061058;27;51039;-62
2022/03/18 03:15:15;;;;;;;;;38.25;37.00;;;;;;;;5068903;28;51979;-62
2022/03/18 03:17:40;;;;;;;;;38.50;34.50;;;;;;;;5071677;28;51219;-62
2022/03/18 03:20:08;;;;;;;;;42.00;37.00;;;;;;;;5072937;27;50936;-62
2022/03/18 03:22:33;;;;;;;;;39.75;36.75;;;;;;;;5068601;27;51438;-63
2022/03/18 03:24:59;;;;;;;;;46.00;40.50;;;;;;;;5067611;28;51333;-61
2022/03/18 03:27:31;;;;;;;;;44.25;38.50;;;;;;;;5073555;28;50885;-61
2022/03/18 03:29:59;;;;;;;;;48.75;41.75;;;;;;;;5066495;27;51017;-62
2022/03/18 03:32:25;;;;;;;;;49.50;42.75;;;;;;;;5066734;27;51261;-62
2022/03/18 03:34:50;;;;;;;;;49.75;43.50;;;;;;;;5063079;28;51918;-62
2022/03/18 03:37:16;;;;;;;;;53.25;43.00;;;;;;;;5068814;28;51112;-62
2022/03/18 03:39:41;;;;;;;;;49.75;43.00;;;;;;;;5065193;27;52776;-62
2022/03/18 03:42:06;;;;;;;;;53.75;44.25;;;;;;;;5064988;27;51067;-62
2022/03/18 03:44:31;;;;;;;;;49.25;41.00;;;;;;;;5070533;27;51276;-62
2022/03/18 03:46:56;;;;;;;;;53.00;43.75;;;;;;;;5071329;27;51112;-62
2022/03/18 03:49:22;;;;;;;;;32.00;30.25;;;;;;;;5062803;27;51006;-62
2022/03/18 03:51:47;;;;;;;;;40.25;37.50;;;;;;;;5072540;27;50997;-62
2022/03/18 03:54:12;;;;;;;;;39.75;36.75;;;;;;;;5062476;28;51202;-62
2022/03/18 03:56:37;;;;;;;;;39.25;37.25;;;;;;;;5071025;27;51132;-62
2022/03/18 03:59:02;;;;;;;;;50.00;39.50;;;;;;;;5066104;27;52720;-63
2022/03/18 04:01:28;;;;;;;;;38.75;36.25;;;;;;;;5070419;28;51354;-62
2022/03/18 04:03:54;;;;;;;;;37.00;34.75;;;;;;;;5070258;28;51081;-62
2022/03/18 04:06:20;;;;;;;;;34.50;33.50;;;;;;;;5056838;28;50989;-63
2022/03/18 04:08:45;;;;;;;;;37.00;33.75;;;;;;;;5069793;27;50955;-62
2022/03/18 04:11:11;;;;;;;;;36.75;36.00;;;;;;;;5073105;28;51372;-62
2022/03/18 04:13:36;;;;;;;;;36.50;27.75;;;;;;;;5067625;27;51939;-62
2022/03/18 04:16:01;;;;;;;;;34.25;31.00;;;;;;;;5065525;27;51278;-63
2022/03/18 04:18:27;;;;;;;;;39.50;35.00;;;;;;;;5070811;28;50922;-63
2022/03/18 04:20:52;;;;;;;;;34.25;31.75;;;;;;;;5073382;28;50882;-62
2022/03/18 04:23:17;;;;;;;;;35.75;34.75;;;;;;;;5068243;28;50935;-62
2022/03/18 04:25:42;;;;;;;;;36.00;30.75;;;;;;;;5072452;27;51145;-62
2022/03/18 04:28:07;;;;;;;;;34.50;34.50;;;;;;;;5074347;28;51281;-62
2022/03/18 04:30:33;;;;;;;;;30.25;29.75;;;;;;;;5073085;27;51253;-62
2022/03/18 04:32:58;;;;;;;;;35.75;31.50;;;;;;;;5061386;27;51972;-62
2022/03/18 04:35:24;;;;;;;;;40.25;34.75;;;;;;;;5074314;27;50970;-62
2022/03/18 04:37:49;;;;;;;;;38.75;36.50;;;;;;;;5071291;28;51094;-62
2022/03/18 04:40:14;;;;;;;;;37.00;34.00;;;;;;;;5065341;28;51358;-62
2022/03/18 04:42:40;;;;;;;;;31.50;30.25;;;;;;;;5062364;27;51951;-62
2022/03/18 04:45:05;;;;;;;;;35.00;33.50;;;;;;;;5056135;28;50891;-62
2022/03/18 04:47:33;;;;;;;;;29.25;25.50;;;;;;;;5070438;28;51489;-62
2022/03/18 04:49:58;;;;;;;;;32.75;30.75;;;;;;;;5072635;27;51298;-62
2022/03/18 04:52:23;;;;;;;;;29.25;29.00;;;;;;;;5070969;27;51096;-62
2022/03/18 04:54:48;;;;;;;;;40.75;31.75;;;;;;;;5072000;27;51210;-63
2022/03/18 04:57:18;;;;;;;;;32.50;30.50;;;;;;;;5071872;27;51268;-62
2022/03/18 04:59:44;;;;;;;;;37.50;32.00;;;;;;;;5072925;27;52432;-62
2022/03/18 05:02:12;;;;;;;;;32.00;30.75;;;;;;;;5071633;27;51490;-62
2022/03/18 05:04:38;;;;;;;;;29.00;26.25;;;;;;;;5065638;27;51100;-63
2022/03/18 05:07:03;;;;;;;;;34.25;30.75;;;;;;;;5058874;28;51109;-63
2022/03/18 05:09:29;;;;;;;;;30.25;28.00;;;;;;;;5062308;28;51278;-63
2022/03/18 05:11:54;;;;;;;;;46.50;41.00;;;;;;;;5066023;28;51360;-62
2022/03/18 05:14:19;;;;;;;;;37.50;31.50;;;;;;;;5066512;27;51098;-62
2022/03/18 05:16:45;;;;;;;;;31.00;29.25;;;;;;;;5061236;28;51333;-62
2022/03/18 05:19:10;;;;;;;;;36.25;32.75;;;;;;;;5073510;27;51159;-61
2022/03/18 05:21:36;;;;;;;;;29.75;28.75;;;;;;;;5057012;28;51939;-61
2022/03/18 05:24:02;;;;;;;;;34.00;31.75;;;;;;;;5064504;27;50965;-61
2022/03/18 05:26:27;;;;;;;;;31.50;29.75;;;;;;;;5060689;28;51184;-62
2022/03/18 05:28:52;;;;;;;;;31.50;29.75;;;;;;;;5070035;27;51121;-62
2022/03/18 05:31:18;;;;;;;;;30.50;28.75;;;;;;;;5072940;28;51702;-63
2022/03/18 05:33:43;;;;;;;;;30.75;28.75;;;;;;;;5067330;28;50993;-62
2022/03/18 05:36:08;;;;;;;;;30.50;27.75;;;;;;;;5068209;28;51006;-62
2022/03/18 05:38:33;;;;;;;;;34.00;30.00;;;;;;;;5071750;27;51155;-62
2022/03/18 05:40:58;;;;;;;;;28.25;26.75;;;;;;;;5063664;28;51246;-62
2022/03/18 05:43:24;;;;;;;;;27.75;27.25;;;;;;;;5065060;27;50973;-62
2022/03/18 05:45:49;;;;;;;;;26.50;25.75;;;;;;;;5071505;28;51068;-62
2022/03/18 05:48:14;;;;;;;;;30.00;25.75;;;;;;;;5071420;27;51339;-63
2022/03/18 05:50:40;;;;;;;;;31.75;29.00;;;;;;;;5072695;28;52146;-62
2022/03/18 05:53:05;;;;;;;;;33.75;30.50;;;;;;;;5062281;28;50890;-62
2022/03/18 05:56:52;;;;;;;;;36.00;30.50;;;;;;;;5066559;27;51001;-62
2022/03/18 05:58:18;;;;;;;;;27.25;25.50;;;;;;;;5059888;28;52353;-62
2022/03/18 06:00:44;;;;;;;;;3.00;2.00;;;;;;;;5071044;28;51174;-63
2022/03/18 06:03:10;;;;;;;;;29.75;26.25;;;;;;;;5068900;27;51073;-62
2022/03/18 06:05:35;;;;;;;;;30.75;27.50;;;;;;;;5071521;28;50996;-62
2022/03/18 06:11:48;;;;;;;;;28.00;22.75;;;;;;;;5071629;27;50994;-62
2022/03/18 06:13:29;;;;;;;;;28.25;27.25;;;;;;;;5064906;27;51271;-62
2022/03/18 06:15:54;;;;;;;;;20.00;20.00;;;;;;;;5072311;27;51299;-62
2022/03/18 06:18:20;;;;;;;;;29.50;28.50;;;;;;;;5068008;28;50897;-62
2022/03/18 06:20:52;;;;;;;;;21.00;20.25;;;;;;;;5066277;28;52036;-63
2022/03/18 06:23:17;;;;;;;;;29.25;26.75;;;;;;;;5070403;27;51279;-63
2022/03/18 06:25:43;;;;;;;;;28.25;25.00;;;;;;;;5072140;28;50972;-63
2022/03/18 06:28:08;;;;;;;;;29.75;29.25;;;;;;;;5070850;27;51010;-62
2022/03/18 06:30:33;;;;;;;;;29.00;27.75;;;;;;;;5070708;28;52095;-63
2022/03/18 06:32:58;;;;;;;;;33.75;31.25;;;;;;;;5067833;27;51177;-62
2022/03/18 06:35:26;;;;;;;;;31.00;28.50;;;;;;;;5072773;27;51362;-65
2022/03/18 06:37:51;;;;;;;;;33.25;28.50;;;;;;;;5071377;28;51335;-63
2022/03/18 06:40:16;;;;;;;;;34.75;32.25;;;;;;;;5070222;27;51795;-61
2022/03/18 06:42:42;;;;;;;;;29.75;27.75;;;;;;;;5069071;27;51165;-62
2022/03/18 06:45:07;;;;;;;;;31.00;30.25;;;;;;;;5071305;28;50925;-62
2022/03/18 06:47:32;;;;;;;;;30.25;28.25;;;;;;;;5072291;27;50942;-62
2022/03/18 06:49:58;;;;;;;;;29.00;27.00;;;;;;;;5063198;27;51708;-63
2022/03/18 06:52:24;;;;;;;;;29.75;28.00;;;;;;;;5065699;27;51452;-62
2022/03/18 06:54:49;;;;;;;;;24.75;24.75;;;;;;;;5062196;27;51252;-62
2022/03/18 06:57:14;;;;;;;;;35.75;32.75;;;;;;;;5068834;27;51187;-62
2022/03/18 06:59:39;;;;;;;;;28.00;28.00;;;;;;;;5063503;27;52305;-62
2022/03/18 07:02:04;;;;;;;;;27.25;26.00;;;;;;;;5055767;27;51741;-62
2022/03/18 07:04:30;;;;;;;;;25.75;24.25;;;;;;;;5065188;27;51177;-62
2022/03/18 07:06:55;;;;;;;;;29.50;28.25;;;;;;;;5067041;27;51351;-63
2022/03/18 07:09:20;;;;;;;;;27.50;27.25;;;;;;;;5072920;27;51012;-61
2022/03/18 07:11:45;;;;;;;;;35.25;31.75;;;;;;;;5059747;27;51155;-61
2022/03/18 07:14:10;;;;;;;;;30.00;26.75;;;;;;;;5063434;27;51143;-61
2022/03/18 07:19:20;;;;;;;;;34.50;29.75;;;;;;;;5056605;27;51104;-61
2022/03/18 07:21:46;;;;;;;;;23.50;21.25;;;;;;;;5070527;27;51122;-61
2022/03/18 07:24:12;;;;;;;;;28.50;27.00;;;;;;;;5062235;27;51231;-61
2022/03/18 07:26:37;;;;;;;;;30.25;28.75;;;;;;;;5065586;28;51117;-62
2022/03/18 07:29:04;;;;;;;;;28.50;25.00;;;;;;;;5059483;27;52015;-63
2022/03/18 07:31:29;;;;;;;;;37.75;35.25;;;;;;;;5070628;28;51066;-63
2022/03/18 07:33:55;;;;;;;;;28.50;26.75;;;;;;;;5060849;28;51167;-63
2022/03/18 07:36:20;;;;;;;;;28.00;27.00;;;;;;;;5072080;28;51147;-63
2022/03/18 07:38:45;;;;;;;;;29.75;26.50;;;;;;;;5071529;27;52224;-63
2022/03/18 07:41:11;;;;;;;;;31.75;28.50;;;;;;;;5072753;28;51215;-64
2022/03/18 07:43:36;;;;;;;;;29.25;25.25;;;;;;;;5075429;27;51018;-64
2022/03/18 07:46:02;;;;;;;;;27.75;26.00;;;;;;;;5075387;27;50884;-64
2022/03/18 07:48:27;;;;;;;;;26.25;25.25;;;;;;;;5075624;27;52243;-63
2022/03/18 07:50:52;;;;;;;;;23.00;21.00;;;;;;;;5069923;28;51143;-64
2022/03/18 07:53:18;;;;;;;;;28.50;28.00;;;;;;;;5074612;27;50933;-63
2022/03/18 07:55:43;;;;;;;;;27.50;25.75;;;;;;;;5074826;27;50981;-63
2022/03/18 07:58:08;;;;;;;;;27.25;24.00;;;;;;;;5074277;27;52368;-64
2022/03/18 08:00:34;;;;;;;;;20.75;19.75;;;;;;;;5074334;28;50985;-64
2022/03/18 08:02:59;;;;;;;;;23.25;22.50;;;;;;;;5064384;28;50824;-64
2022/03/18 08:05:25;;;;;;;;;24.50;23.25;;;;;;;;5073042;27;51283;-64
2022/03/18 08:07:50;;;;;;;;;28.25;26.25;;;;;;;;5073814;27;51077;-65
2022/03/18 08:10:17;;;;;;;;;24.00;23.25;;;;;;;;5071895;28;51022;-64
2022/03/18 08:12:43;;;;;;;;;22.25;21.00;;;;;;;;5074773;27;51039;-63
2022/03/18 08:15:10;;;;;;;;;23.75;22.50;;;;;;;;5074466;28;51303;-64
2022/03/18 08:17:39;;;;;;;;;25.00;22.00;;;;;;;;5074174;27;52718;-64
2022/03/18 08:20:06;;;;;;;;;21.75;21.50;;;;;;;;5073699;27;51060;-64
2022/03/18 08:22:31;;;;;;;;;26.00;23.25;;;;;;;;5073832;28;51138;-64
2022/03/18 08:24:56;;;;;;;;;25.25;24.25;;;;;;;;5062949;27;51132;-64
2022/03/18 08:27:22;;;;;;;;;24.25;23.00;;;;;;;;5073988;27;51225;-64
2022/03/18 08:29:47;;;;;;;;;23.00;21.50;;;;;;;;5073874;27;51099;-64
2022/03/18 08:32:13;;;;;;;;;25.50;23.75;;;;;;;;5074436;27;51853;-64
2022/03/18 08:34:39;;;;;;;;;22.75;22.25;;;;;;;;5074306;27;51099;-63
2022/03/18 08:37:08;;;;;;;;;24.75;22.75;;;;;;;;5072187;28;54087;-63
2022/03/18 08:39:33;;;;;;;;;20.00;20.00;;;;;;;;5074002;27;51099;-65
2022/03/18 08:41:59;;;;;;;;;23.75;21.00;;;;;;;;5073327;27;50914;-64
2022/03/18 08:44:24;;;;;;;;;20.25;19.50;;;;;;;;5074227;28;51004;-64
2022/03/18 08:46:49;;;;;;;;;20.67;19.67;;;;;;;;5073840;27;51343;-64
2022/03/18 08:49:15;;;;;;;;;23.75;21.00;;;;;;;;5073806;27;50915;-64
2022/03/18 08:51:40;;;;;;;;;20.00;20.00;;;;;;;;5073378;27;51088;-64
2022/03/18 08:54:06;;;;;;;;;16.75;16.50;;;;;;;;5073889;28;51031;-64
2022/03/18 08:56:31;;;;;;;;;24.00;22.33;;;;;;;;5073252;27;51278;-64
2022/03/18 08:58:57;;;;;;;;;19.50;19.50;;;;;;;;5072233;28;50953;-64
2022/03/18 09:01:22;;;;;;;;;22.00;20.00;;;;;;;;5073341;28;51182;-64
2022/03/18 09:03:47;;;;;;;;;19.00;18.67;;;;;;;;5072216;28;51295;-64
2022/03/18 09:06:14;;;;;;;;;21.50;18.00;;;;;;;;5073197;28;51064;-63
2022/03/18 09:08:40;;;;;;;;;22.25;20.00;;;;;;;;5073359;27;50966;-64
2022/03/18 09:11:05;;;;;;;;;23.00;22.50;;;;;;;;5072848;27;51388;-64
2022/03/18 09:13:33;;;;;;;;;20.00;19.00;;;;;;;;5072547;28;51287;-64
2022/03/18 09:15:58;;;;;;;;;20.67;18.00;;;;;;;;5068196;27;52974;-64
2022/03/18 09:18:23;;;;;;;;;21.00;19.00;;;;;;;;5073770;27;50881;-64
2022/03/18 09:20:48;;;;;;;;;23.67;21.00;;;;;;;;5073184;27;51152;-65
2022/03/18 09:23:14;;;;;;;;;18.67;18.33;;;;;;;;5063376;27;51173;-64
2022/03/18 09:25:40;;;;;;;;;16.33;15.67;;;;;;;;5071624;28;52330;-64
2022/03/18 09:28:05;;;;;;;;;18.00;18.00;;;;;;;;5073457;27;50892;-65
2022/03/18 09:30:30;;;;;;;;;16.00;15.33;;;;;;;;5073614;27;51762;-64
2022/03/18 09:32:56;;;;;;;;;16.00;16.00;;;;;;;;5065112;27;50795;-65
2022/03/18 09:35:23;;;;;;;;;18.33;18.00;;;;;;;;5072155;27;52494;-64
2022/03/18 09:37:48;;;;;;;;;11.00;10.33;;;;;;;;5072346;27;51242;-65
2022/03/18 09:40:14;;;;;;;;;12.33;11.67;;;;;;;;5072521;28;51231;-64
2022/03/18 09:42:58;;;;;;;;;15.00;14.67;;;;;;;;5072476;27;51286;-64
2022/03/18 09:45:24;;;;;;;;;25.33;23.33;;;;;;;;5070457;28;51948;-64
2022/03/18 09:47:50;;;;;;;;;17.00;17.00;;;;;;;;5072314;28;51005;-64
2022/03/18 09:50:16;;;;;;;;;8.00;8.00;;;;;;;;5070659;27;51137;-65
2022/03/18 09:52:42;;;;;;;;;16.67;14.00;;;;;;;;5072049;28;51334;-65
2022/03/18 09:55:07;;;;;;;;;16.00;15.00;;;;;;;;5072146;27;51953;-66
2022/03/18 09:57:32;;;;;;;;;13.33;12.00;;;;;;;;5071974;28;51166;-65
2022/03/18 09:59:57;;;;;;;;;16.67;15.33;;;;;;;;5050677;28;51220;-65
2022/03/18 10:02:27;;;;;;;;;12.00;12.00;;;;;;;;5070114;28;51043;-67
2022/03/18 10:05:03;;;;;;;;;15.33;13.67;;;;;;;;5071967;28;52078;-66
2022/03/18 10:07:29;;;;;;;;;13.00;12.00;;;;;;;;5070678;28;51305;-66
2022/03/18 10:10:10;;;;;;;;;15.00;13.00;;;;;;;;5072496;27;51087;-66
2022/03/18 10:12:36;;;;;;;;;12.33;11.00;;;;;;;;5072517;27;51238;-66
2022/03/18 10:15:04;;;;;;;;;15.33;13.67;;;;;;;;5072093;27;50901;-66
2022/03/18 10:17:43;;;;;;;;;13.00;12.67;;;;;;;;5072236;27;50987;-66
2022/03/18 10:20:22;;;;;;;;;15.33;15.00;;;;;;;;5071780;28;51056;-65
2022/03/18 10:22:48;;;;;;;;;14.67;14.67;;;;;;;;5065842;27;51220;-64
2022/03/18 10:25:32;;;;;;;;;10.00;9.33;;;;;;;;5071432;27;51031;-66
2022/03/18 10:27:58;;;;;;;;;12.33;11.67;;;;;;;;5072130;27;51115;-65
2022/03/18 10:30:23;;;;;;;;;12.67;11.67;;;;;;;;5072475;27;51200;-66
2022/03/18 10:32:49;;;;;;;;;11.33;10.33;;;;;;;;5072323;27;51339;-66
2022/03/18 10:38:12;;;;;;;;;14.33;14.33;;;;;;;;5066460;28;51030;-66
2022/03/18 10:40:38;;;;;;;;;11.67;11.33;;;;;;;;5064993;28;51230;-66
2022/03/18 10:43:04;;;;;;;;;11.67;11.33;;;;;;;;5073161;27;51073;-65
2022/03/18 10:45:29;;;;;;;;;9.00;9.00;;;;;;;;5072611;27;52262;-66
2022/03/18 10:48:08;;;;;;;;;10.00;9.00;;;;;;;;5071979;27;50963;-66
2022/03/18 10:50:34;;;;;;;;;8.33;7.67;;;;;;;;5070468;28;51119;-67
2022/03/18 10:53:01;;;;;;;;;8.33;7.00;;;;;;;;5070590;28;51271;-67
2022/03/18 10:55:28;;;;;;;;;10.33;10.33;;;;;;;;5052503;28;52124;-66
2022/03/18 10:57:59;;;;;;;;;8.00;7.00;;;;;;;;5071348;28;50908;-66
2022/03/18 11:00:25;;;;;;;;;14.67;14.00;;;;;;;;5072106;27;51007;-67
2022/03/18 11:02:51;;;;;;;;;12.33;12.33;;;;;;;;5074073;28;51223;-67
2022/03/18 11:05:19;;;;;;;;;12.00;12.00;;;;;;;;5074997;28;51142;-66
2022/03/18 11:07:44;;;;;;;;;11.67;11.00;;;;;;;;5056699;28;50980;-66
2022/03/18 11:12:55;;;;;;;;;10.00;10.00;;;;;;;;5073001;28;51120;-65
2022/03/18 11:15:21;;;;;;;;;12.00;11.00;;;;;;;;5074894;28;51231;-66
2022/03/18 11:17:47;;;;;;;;;11.00;10.00;;;;;;;;5073990;28;51119;-67
2022/03/18 11:20:13;;;;;;;;;10.33;10.33;;;;;;;;5074826;27;51129;-67
2022/03/18 11:22:39;;;;;;;;;12.67;11.67;;;;;;;;5070797;27;50941;-66
2022/03/18 11:25:06;;;;;;;;;13.00;12.00;;;;;;;;5059374;28;51293;-66
2022/03/18 11:27:34;;;;;;;;;9.33;8.00;;;;;;;;5074977;27;50949;-66
2022/03/18 11:30:18;;;;;;;;;9.00;9.00;;;;;;;;5066093;27;51196;-66
2022/03/18 11:32:44;;;;;;;;;7.00;6.67;;;;;;;;5074819;27;50996;-66
2022/03/18 11:35:09;;;;;;;;;9.00;8.33;;;;;;;;5074448;28;50925;-64
2022/03/18 11:37:35;;;;;;;;;7.33;7.00;;;;;;;;5074482;27;51075;-66
2022/03/18 11:40:18;;;;;;;;;9.33;9.00;;;;;;;;5074476;27;50910;-65
2022/03/18 11:42:45;;;;;;;;;9.67;9.33;;;;;;;;5074707;27;50977;-67
2022/03/18 11:45:12;;;;;;;;;11.00;10.67;;;;;;;;5074199;27;51730;-63
2022/03/18 11:47:39;;;;;;;;;8.50;8.50;;;;;;;;5073899;28;51120;-63
2022/03/18 11:50:24;;;;;;;;;11.00;10.00;;;;;;;;5074075;27;50980;-67
2022/03/18 11:52:57;;;;;;;;;6.33;6.33;;;;;;;;5074136;28;51061;-64
2022/03/18 11:55:22;;;;;;;;;6.67;6.67;;;;;;;;5062990;27;51783;-64
2022/03/18 11:57:47;;;;;;;;;10.67;10.00;;;;;;;;5074143;28;51065;-64
2022/03/18 12:00:41;;;;;;;;;8.33;8.33;;;;;;;;5073929;27;51260;-64
2022/03/18 12:03:06;;;;;;;;;9.00;8.00;;;;;;;;5064351;28;51151;-63
2022/03/18 12:05:32;;;;;;;;;9.00;9.00;;;;;;;;5073941;27;52191;-64
2022/03/18 12:07:59;;;;;;;;;10.67;10.67;;;;;;;;5074085;27;51183;-64
2022/03/18 12:10:34;;;;;;;;;13.00;13.00;;;;;;;;5074361;27;50905;-64
2022/03/18 12:13:03;;;;;;;;;12.33;11.33;;;;;;;;5074285;27;50961;-64
2022/03/18 12:15:32;;;;;;;;;9.67;9.67;;;;;;;;5072335;28;53701;-63
2022/03/18 12:17:58;;;;;;;;;12.33;11.67;;;;;;;;5073722;27;50984;-64
2022/03/18 12:20:23;;;;;;;;;14.33;12.00;;;;;;;;5064451;27;51231;-64
2022/03/18 12:22:50;;;;;;;;;10.00;10.00;;;;;;;;5073743;27;51282;-65
2022/03/18 12:25:15;;;;;;;;;13.67;12.67;;;;;;;;5072259;28;53487;-64
2022/03/18 12:27:41;;;;;;;;;13.67;13.00;;;;;;;;5072451;28;51098;-63
2022/03/18 12:30:10;;;;;;;;;16.00;13.25;;;;;;;;5073647;27;51146;-64
2022/03/18 12:32:40;;;;;;;;;12.33;10.33;;;;;;;;5067238;27;50890;-65
2022/03/18 12:35:05;;;;;;;;;10.00;9.00;;;;;;;;5072758;28;52320;-64
2022/03/18 12:37:31;;;;;;;;;12.33;12.00;;;;;;;;5072972;27;51107;-64
2022/03/18 12:40:00;;;;;;;;;10.67;9.67;;;;;;;;5073413;28;51005;-64
2022/03/18 12:42:26;;;;;;;;;13.67;12.33;;;;;;;;5073589;28;51180;-64
2022/03/18 12:44:57;;;;;;;;;14.25;14.00;;;;;;;;5073170;27;51997;-64
2022/03/18 12:47:26;;;;;;;;;1.00;0.00;;;;;;;;5073744;27;51058;-64
2022/03/18 12:49:51;;;;;;;;;15.25;15.00;;;;;;;;5073549;27;51131;-65
2022/03/18 12:52:19;;;;;;;;;14.00;14.00;;;;;;;;5072120;28;51320;-62
2022/03/18 12:55:02;;;;;;;;;11.67;11.33;;;;;;;;5063335;28;53182;-63
2022/03/18 12:57:28;;;;;;;;;9.33;8.00;;;;;;;;5073043;28;51060;-65
2022/03/18 12:59:57;;;;;;;;;10.00;10.00;;;;;;;;5073230;28;51047;-64
2022/03/18 13:02:23;;;;;;;;;6.33;6.33;;;;;;;;5071984;28;51210;-65
2022/03/18 13:04:55;;;;;;;;;6.00;6.00;;;;;;;;5073010;28;51292;-64
2022/03/18 13:07:23;;;;;;;;;13.67;12.67;;;;;;;;5072990;27;50947;-67
2022/03/18 13:09:48;;;;;;;;;11.33;11.33;;;;;;;;5071856;28;50876;-64
2022/03/18 13:12:46;;;;;;;;;10.33;10.33;;;;;;;;5069225;27;50883;-64
2022/03/18 13:15:15;;;;;;;;;10.67;10.00;;;;;;;;5038733;27;51347;-64
2022/03/18 13:17:41;;;;;;;;;10.00;9.33;;;;;;;;5073043;27;51148;-65
2022/03/18 13:20:19;;;;;;;;;11.00;11.00;;;;;;;;5072836;27;51053;-65
2022/03/18 13:22:45;;;;;;;;;9.00;8.67;;;;;;;;5072834;27;51000;-63
2022/03/18 13:25:10;;;;;;;;;9.00;9.00;;;;;;;;5063774;27;51962;-65
2022/03/18 13:27:35;;;;;;;;;2.67;2.00;;;;;;;;5072573;27;50911;-64
2022/03/18 13:32:51;;;;;;;;;7.00;6.00;;;;;;;;5072688;28;50844;-64
2022/03/18 13:35:17;;;;;;;;;8.00;8.00;;;;;;;;5072552;28;52220;-65
2022/03/18 13:37:43;;;;;;;;;6.33;5.67;;;;;;;;5072399;27;50922;-64
2022/03/18 13:40:13;;;;;;;;;5.00;5.00;;;;;;;;5073046;27;51140;-64
2022/03/18 13:42:38;;;;;;;;;1.00;1.00;;;;;;;;5073722;28;51330;-64
2022/03/18 13:45:04;;;;;;;;;7.00;6.67;;;;;;;;5072613;28;51938;-64
2022/03/18 13:47:43;;;;;;;;;6.67;6.67;;;;;;;;5073204;27;50974;-64
2022/03/18 13:50:09;;;;;;;;;5.67;5.33;;;;;;;;5065923;28;51155;-63
2022/03/18 13:52:35;;;;;;;;;7.00;7.00;;;;;;;;5065103;28;51291;-64
2022/03/18 13:55:01;;;;;;;;;7.67;7.67;;;;;;;;5072571;28;52247;-65
2022/03/18 13:57:27;;;;;;;;;7.00;6.00;;;;;;;;5072097;28;50957;-65
2022/03/18 13:59:57;;;;;;;;;7.00;7.00;;;;;;;;5071867;27;51155;-64
2022/03/18 14:02:29;;;;;;;;;8.67;7.67;;;;;;;;5070235;28;50987;-64
2022/03/18 14:04:56;;;;;;;;;9.00;8.33;;;;;;;;5071180;27;51189;-65
2022/03/18 14:07:24;;;;;;;;;7.00;6.33;;;;;;;;5071174;27;50984;-64
2022/03/18 14:09:54;;;;;;;;;8.67;8.00;;;;;;;;5071452;27;51015;-64
2022/03/18 14:12:19;;;;;;;;;11.33;11.00;;;;;;;;5071234;27;51417;-65
2022/03/18 14:14:44;;;;;;;;;13.75;11.00;;;;;;;;5071179;27;51009;-65
2022/03/18 14:17:11;;;;;;;;;11.00;9.67;;;;;;;;5068819;28;51004;-63
2022/03/18 14:19:45;;;;;;;;;9.00;9.00;;;;;;;;5069941;28;51101;-64
2022/03/18 14:22:26;;;;;;;;;8.67;8.00;;;;;;;;5071538;28;50972;-65
2022/03/18 14:24:51;;;;;;;;;7.00;6.67;;;;;;;;5071198;27;53058;-65
2022/03/18 14:27:17;;;;;;;;;8.25;6.50;;;;;;;;5071545;27;50936;-65
2022/03/18 14:29:42;;;;;;;;;4.50;4.50;;;;;;;;5071702;27;51526;-64
2022/03/18 14:32:07;;;;;;;;;13.00;12.00;;;;;;;;5071623;28;50981;-63
2022/03/18 14:34:33;;;;;;;;;12.50;11.50;;;;;;;;5070055;28;51083;-64
2022/03/18 14:36:58;;;;;;;;;10.00;9.67;;;;;;;;5073336;27;50972;-64
2022/03/18 14:39:23;;;;;;;;;13.00;12.75;;;;;;;;5074908;27;51361;-64
2022/03/18 14:41:48;;;;;;;;;11.00;10.67;;;;;;;;5075298;28;51036;-63
2022/03/18 14:44:15;;;;;;;;;10.00;9.50;;;;;;;;5075277;27;51259;-64